Elnora, New York
Current Conditions -  °F | °C
As of 1:51 PM on Saturday 20 Dec 2014 (Local Time) from KALB Reporting Station
Overcast Overcast  
Wind Chill: -2°   Ceiling: 3300
Heat Index: -2°   Visibility: 10mi
Dew Point: -8°   Wind: 3mph
Humidity: 64%   Direction: 290°WNW
Pressure: 30.29"   Gusts: NA
Location:  42.8536°N, 73.7851°W
Report Text: KALB 201851Z 29003KT 10SM OVC033 M02/M08 A3029 RMK AO2 SLP261 OVC V BKN T10171078
Loading
Personal Weather Stations






























Interactive Weather Map New forecast layout! Learn more

10-Day Weather Forecast

Advertisements
Track Severe Weather on mobile